Time;durP1;ratioP1;P1;durP2;ratioP2;P2;SDS_P1;SDS_P2;PMS_P1;PMS_P2;Temp;Humidity;BMP_temperature;BMP_pressure;BME280_temperature;BME280_humidity;BME280_pressure;Samples;Min_cycle;Max_cycle;Signal;HPM_P1;HPM_P2
2023/12/29 00:01:48;;;;;;;31.42;16.05;;;3.60;99.90;;;;;;5054010;28;20067;-62
2023/12/29 00:04:14;;;;;;;33.13;17.95;;;3.50;99.90;;;;;;5052283;28;20037;-62
2023/12/29 00:06:40;;;;;;;36.40;19.58;;;3.60;99.90;;;;;;5052551;28;20029;-61
2023/12/29 00:09:07;;;;;;;38.47;20.13;;;3.60;99.90;;;;;;5051942;28;20083;-62
2023/12/29 00:11:33;;;;;;;38.75;19.98;;;3.50;99.90;;;;;;5053515;28;20017;-62
2023/12/29 00:13:59;;;;;;;39.67;19.30;;;3.50;99.90;;;;;;5053901;28;20067;-61
2023/12/29 00:16:24;;;;;;;40.03;20.27;;;3.60;99.90;;;;;;5053393;28;20048;-62
2023/12/29 00:18:50;;;;;;;38.75;18.50;;;3.60;99.90;;;;;;5053618;28;20029;-61
2023/12/29 00:21:16;;;;;;;31.83;17.27;;;3.60;99.90;;;;;;5052225;28;20037;-61
2023/12/29 00:23:41;;;;;;;32.08;16.70;;;3.60;99.90;;;;;;5052433;28;20025;-62
2023/12/29 00:26:07;;;;;;;34.38;17.25;;;3.60;99.90;;;;;;5052323;28;20028;-61
2023/12/29 00:28:35;;;;;;;32.28;17.20;;;3.60;99.90;;;;;;5052303;28;20036;-62
2023/12/29 00:31:01;;;;;;;28.77;17.40;;;3.60;99.90;;;;;;5052867;28;20056;-62
2023/12/29 00:33:26;;;;;;;31.77;16.50;;;3.70;99.90;;;;;;5053205;28;20461;-62
2023/12/29 00:35:52;;;;;;;29.95;15.38;;;3.70;99.90;;;;;;5054576;28;20087;-62
2023/12/29 00:38:18;;;;;;;31.52;16.33;;;3.60;99.90;;;;;;5053557;28;20036;-64
2023/12/29 00:40:43;;;;;;;30.98;16.27;;;3.70;99.90;;;;;;5053693;28;20037;-62
2023/12/29 00:43:09;;;;;;;29.30;15.15;;;3.80;99.90;;;;;;5052311;28;20029;-61
2023/12/29 00:45:35;;;;;;;34.13;15.13;;;3.80;99.90;;;;;;5053556;28;20017;-62
2023/12/29 00:48:02;;;;;;;28.88;15.63;;;3.80;99.90;;;;;;5052119;28;20027;-62
2023/12/29 00:50:27;;;;;;;26.17;14.73;;;3.80;99.90;;;;;;5053379;28;20060;-62
2023/12/29 00:52:53;;;;;;;27.20;14.80;;;3.80;99.90;;;;;;5053238;28;20500;-62
2023/12/29 00:55:19;;;;;;;25.13;14.65;;;3.80;99.90;;;;;;5052022;28;20112;-62
2023/12/29 00:57:45;;;;;;;29.95;13.93;;;3.80;99.90;;;;;;5052003;28;20048;-62
2023/12/29 01:00:12;;;;;;;25.00;14.90;;;3.90;99.90;;;;;;5053052;28;20459;-62
2023/12/29 01:02:38;;;;;;;28.58;15.45;;;3.90;99.90;;;;;;5053522;28;20025;-62
2023/12/29 01:05:05;;;;;;;28.73;15.40;;;3.90;99.90;;;;;;5053540;28;20032;-62
2023/12/29 01:07:31;;;;;;;26.70;12.93;;;3.90;99.90;;;;;;5051950;28;20461;-62
2023/12/29 01:09:56;;;;;;;23.98;13.90;;;3.90;99.90;;;;;;5051974;28;20044;-62
2023/12/29 01:12:22;;;;;;;33.35;14.05;;;4.00;99.90;;;;;;5053201;28;20033;-62
2023/12/29 01:14:48;;;;;;;28.65;13.43;;;4.00;99.90;;;;;;5053448;28;20037;-62
2023/12/29 01:17:13;;;;;;;26.13;13.95;;;4.00;99.90;;;;;;5053143;28;20021;-62
2023/12/29 01:19:39;;;;;;;20.98;12.85;;;4.00;99.90;;;;;;5053291;28;20033;-62
2023/12/29 01:22:04;;;;;;;26.95;13.40;;;4.00;99.90;;;;;;5056783;28;20040;-62
2023/12/29 01:24:30;;;;;;;25.35;13.35;;;4.00;99.90;;;;;;5056750;28;20033;-62
2023/12/29 01:26:56;;;;;;;22.60;12.38;;;4.00;99.90;;;;;;5056718;28;20082;-62
2023/12/29 01:29:22;;;;;;;22.45;12.57;;;4.10;99.90;;;;;;5056628;28;20441;-62
2023/12/29 01:31:47;;;;;;;22.40;12.73;;;4.10;99.90;;;;;;5056368;28;20430;-62
2023/12/29 01:34:13;;;;;;;24.80;12.60;;;4.10;99.90;;;;;;5056555;28;20029;-62
2023/12/29 01:36:39;;;;;;;20.45;12.57;;;4.10;99.90;;;;;;5055261;28;20108;-62
2023/12/29 01:39:05;;;;;;;23.98;12.55;;;4.20;99.90;;;;;;5055136;28;20123;-62
2023/12/29 01:41:30;;;;;;;23.10;12.77;;;4.10;99.90;;;;;;5055610;28;20074;-62
2023/12/29 01:43:59;;;;;;;24.25;13.52;;;4.20;99.90;;;;;;5056424;28;20067;-62
2023/12/29 01:46:27;;;;;;;26.42;13.70;;;4.20;99.90;;;;;;5055115;28;20025;-62
2023/12/29 01:48:53;;;;;;;22.00;12.85;;;4.20;99.90;;;;;;5055010;28;20063;-62
2023/12/29 01:51:22;;;;;;;28.50;14.00;;;4.20;99.90;;;;;;5054631;28;20064;-62
2023/12/29 01:53:48;;;;;;;27.33;12.52;;;4.20;99.90;;;;;;5056503;28;20052;-62
2023/12/29 01:56:14;;;;;;;23.10;12.45;;;4.20;99.90;;;;;;5055870;28;20479;-62
2023/12/29 01:58:40;;;;;;;24.67;13.73;;;4.20;99.90;;;;;;5056098;28;20041;-62
2023/12/29 02:01:07;;;;;;;22.42;12.20;;;4.20;99.90;;;;;;5054740;28;20037;-62
2023/12/29 02:03:34;;;;;;;24.55;13.63;;;4.20;99.90;;;;;;5054751;28;20057;-62
2023/12/29 02:06:00;;;;;;;23.83;12.38;;;4.20;99.90;;;;;;5055663;28;20439;-62
2023/12/29 02:08:29;;;;;;;21.25;12.27;;;4.20;99.90;;;;;;5055885;28;20025;-62
2023/12/29 02:10:55;;;;;;;24.35;13.40;;;4.20;99.90;;;;;;5054539;28;20060;-61
2023/12/29 02:13:22;;;;;;;21.80;12.02;;;4.10;99.90;;;;;;5054540;28;20047;-62
2023/12/29 02:15:54;;;;;;;24.38;12.07;;;4.20;99.90;;;;;;5054470;28;20457;-62
2023/12/29 02:18:21;;;;;;;28.35;12.98;;;4.20;99.90;;;;;;5055586;28;20588;-62
2023/12/29 02:20:47;;;;;;;22.63;12.07;;;4.20;99.90;;;;;;5055816;28;20033;-62
2023/12/29 02:23:12;;;;;;;23.70;13.88;;;4.20;99.90;;;;;;5055659;28;20488;-62
2023/12/29 02:25:38;;;;;;;21.63;12.18;;;4.20;99.90;;;;;;5055673;28;20051;-62
2023/12/29 02:28:25;;;;;;;21.90;12.40;;;4.20;99.90;;;;;;5055982;28;20025;-62
2023/12/29 02:31:05;;;;;;;22.10;13.25;;;4.20;99.90;;;;;;5055781;28;20067;-62
2023/12/29 02:33:33;;;;;;;25.88;12.02;;;4.20;99.90;;;;;;5055166;28;20028;-62
2023/12/29 02:36:00;;;;;;;22.55;13.38;;;4.30;99.90;;;;;;5055721;28;20021;-61
2023/12/29 02:38:29;;;;;;;24.02;12.30;;;4.20;99.90;;;;;;5055323;28;20021;-62
2023/12/29 02:40:58;;;;;;;26.17;13.70;;;4.20;99.90;;;;;;5055242;28;20036;-62
2023/12/29 02:43:24;;;;;;;21.20;12.15;;;4.20;99.90;;;;;;5053958;28;20029;-61
2023/12/29 02:45:50;;;;;;;22.75;12.52;;;4.20;99.90;;;;;;5053892;28;20036;-62
2023/12/29 02:48:15;;;;;;;21.83;11.77;;;4.20;99.90;;;;;;5055171;28;20377;-62
2023/12/29 02:50:41;;;;;;;22.63;11.45;;;4.20;99.90;;;;;;5055370;28;20062;-62
2023/12/29 02:53:07;;;;;;;21.25;11.75;;;4.20;99.90;;;;;;5055229;28;20049;-62
2023/12/29 02:55:33;;;;;;;20.55;12.10;;;4.20;99.90;;;;;;5054730;28;20099;-62
2023/12/29 02:57:59;;;;;;;20.65;11.52;;;4.20;99.90;;;;;;5054957;28;20017;-62
2023/12/29 03:00:24;;;;;;;19.70;11.13;;;4.30;99.90;;;;;;5054840;28;20111;-62
2023/12/29 03:02:50;;;;;;;18.70;11.40;;;4.10;99.90;;;;;;5053558;28;20380;-62
2023/12/29 03:05:15;;;;;;;19.00;10.68;;;4.20;99.90;;;;;;5054520;28;20029;-62
2023/12/29 03:07:41;;;;;;;20.73;11.27;;;4.20;99.90;;;;;;5054803;28;20083;-62
2023/12/29 03:10:07;;;;;;;17.52;10.35;;;4.20;99.90;;;;;;5054838;28;20029;-62
2023/12/29 03:12:33;;;;;;;15.88;10.38;;;4.20;99.90;;;;;;5053421;28;20423;-62
2023/12/29 03:14:59;;;;;;;19.35;10.85;;;4.20;99.90;;;;;;5054363;28;20025;-62
2023/12/29 03:17:25;;;;;;;16.63;10.68;;;4.20;99.90;;;;;;5054317;28;20059;-62
2023/12/29 03:19:51;;;;;;;18.17;10.80;;;4.20;99.90;;;;;;5054617;28;20033;-62
2023/12/29 03:22:17;;;;;;;19.60;10.02;;;4.20;99.90;;;;;;5054540;28;20025;-62
2023/12/29 03:24:42;;;;;;;17.50;11.55;;;4.20;99.90;;;;;;5054199;28;20032;-62
2023/12/29 03:27:08;;;;;;;16.52;10.20;;;4.20;99.90;;;;;;5053205;28;20025;-62
2023/12/29 03:29:34;;;;;;;19.20;10.73;;;4.20;99.90;;;;;;5053075;28;20032;-62
2023/12/29 03:31:59;;;;;;;17.80;10.75;;;4.20;99.90;;;;;;5054049;28;20036;-62
2023/12/29 03:34:25;;;;;;;18.77;11.40;;;4.20;99.90;;;;;;5054332;28;20380;-62
2023/12/29 03:36:51;;;;;;;19.73;11.20;;;4.20;99.90;;;;;;5053201;28;20120;-62
2023/12/29 03:39:16;;;;;;;18.50;10.75;;;4.20;99.90;;;;;;5054259;28;20354;-62
2023/12/29 03:41:42;;;;;;;19.33;10.27;;;4.20;99.90;;;;;;5054205;28;20453;-61
2023/12/29 03:44:08;;;;;;;18.35;10.85;;;4.20;99.90;;;;;;5053355;28;20416;-61
2023/12/29 03:46:33;;;;;;;17.60;11.63;;;4.30;99.90;;;;;;5054401;28;20033;-61
2023/12/29 03:48:59;;;;;;;17.30;11.43;;;4.30;99.90;;;;;;5054333;28;20025;-62
2023/12/29 03:51:25;;;;;;;15.15;10.68;;;4.30;99.90;;;;;;5054115;28;20108;-62
2023/12/29 03:53:50;;;;;;;20.30;10.77;;;4.40;99.90;;;;;;5052417;28;20056;-62
2023/12/29 03:56:17;;;;;;;12.30;8.80;;;4.50;99.90;;;;;;5055004;28;20035;-62
2023/12/29 03:58:46;;;;;;;18.67;9.45;;;4.60;99.90;;;;;;5054171;28;20025;-62
2023/12/29 04:01:13;;;;;;;;;;;4.70;99.90;;;;;;5055386;28;20037;-62
2023/12/29 04:03:39;;;;;;;13.20;7.97;;;4.80;99.90;;;;;;5054161;28;19911;-62
2023/12/29 04:06:06;;;;;;;8.98;5.95;;;4.90;99.90;;;;;;5054065;28;20021;-62
2023/12/29 04:08:32;;;;;;;3.63;2.00;;;5.10;99.90;;;;;;5052562;28;20427;-62
2023/12/29 04:10:57;;;;;;;5.35;2.53;;;5.90;99.90;;;;;;5053818;28;20104;-62
2023/12/29 04:13:23;;;;;;;7.68;3.10;;;6.60;99.90;;;;;;5053783;28;20106;-62
2023/12/29 04:15:49;;;;;;;2.95;1.45;;;6.70;99.90;;;;;;5053977;28;20457;-62
2023/12/29 04:18:14;;;;;;;5.55;3.47;;;7.00;99.90;;;;;;5054021;28;20065;-62
2023/12/29 04:20:40;;;;;;;6.32;3.03;;;7.50;99.90;;;;;;5052527;28;20060;-62
2023/12/29 04:23:07;;;;;;;7.03;2.50;;;7.60;99.90;;;;;;5053769;28;20025;-62
2023/12/29 04:25:33;;;;;;;2.05;1.60;;;7.40;99.90;;;;;;5052571;28;20063;-62
2023/12/29 04:27:59;;;;;;;6.93;2.15;;;7.70;99.90;;;;;;5053613;28;20059;-62
2023/12/29 04:30:24;;;;;;;1.95;0.85;;;7.90;99.90;;;;;;5053582;28;20029;-62
2023/12/29 04:32:50;;;;;;;4.18;1.02;;;8.00;99.90;;;;;;5053674;28;20029;-62
2023/12/29 04:35:16;;;;;;;1.83;1.08;;;8.10;99.90;;;;;;5053249;28;20032;-62
2023/12/29 04:37:45;;;;;;;0.70;0.60;;;8.30;99.90;;;;;;5052240;28;20120;-62
2023/12/29 04:40:11;;;;;;;1.30;0.50;;;8.60;99.90;;;;;;5053409;28;20032;-62
2023/12/29 04:42:37;;;;;;;0.52;0.50;;;8.80;99.90;;;;;;5052203;28;20389;-62
2023/12/29 04:45:03;;;;;;;1.13;0.73;;;8.80;99.90;;;;;;5052158;28;20021;-62
2023/12/29 04:47:29;;;;;;;2.63;0.40;;;8.80;99.90;;;;;;5052410;28;20029;-62
2023/12/29 04:49:55;;;;;;;2.60;0.50;;;8.90;99.90;;;;;;5052090;28;20037;-62
2023/12/29 04:52:21;;;;;;;1.38;0.70;;;9.10;99.90;;;;;;5053417;28;20052;-62
2023/12/29 04:54:46;;;;;;;2.70;0.50;;;9.50;99.90;;;;;;5054182;28;20032;-62
2023/12/29 04:57:12;;;;;;;0.63;0.50;;;9.50;99.90;;;;;;5055962;28;20453;-62
2023/12/29 04:59:37;;;;;;;1.52;0.50;;;9.60;99.90;;;;;;5057248;28;20052;-62
2023/12/29 05:02:03;;;;;;;0.40;0.30;;;9.70;99.90;;;;;;5057210;28;20036;-62
2023/12/29 05:04:29;;;;;;;0.68;0.40;;;9.80;99.90;;;;;;5057205;28;20024;-62
2023/12/29 05:06:54;;;;;;;1.65;0.50;;;9.80;99.90;;;;;;5057154;28;20527;-62
2023/12/29 05:09:20;;;;;;;0.57;0.50;;;9.80;99.90;;;;;;5055803;28;20071;-62
2023/12/29 05:11:46;;;;;;;2.22;0.50;;;9.80;99.90;;;;;;5055480;28;20032;-62
2023/12/29 05:14:11;;;;;;;0.40;0.40;;;9.80;99.90;;;;;;5056983;28;20070;-62
2023/12/29 05:16:37;;;;;;;0.47;0.40;;;9.90;99.90;;;;;;5055726;28;20483;-62
2023/12/29 05:19:03;;;;;;;2.00;0.68;;;9.90;99.90;;;;;;5055656;28;20522;-62
2023/12/29 05:21:28;;;;;;;0.90;0.43;;;9.90;99.90;;;;;;5056503;28;20496;-62
2023/12/29 05:23:54;;;;;;;1.00;0.50;;;9.90;99.90;;;;;;5055525;28;20032;-62
2023/12/29 05:26:19;;;;;;;1.75;0.60;;;9.90;99.90;;;;;;5055545;28;20387;-62
2023/12/29 05:28:45;;;;;;;0.30;0.30;;;9.70;99.90;;;;;;5055484;28;20349;-62
2023/12/29 05:31:11;;;;;;;0.65;0.50;;;9.70;99.90;;;;;;5056650;28;20487;-62
2023/12/29 05:33:37;;;;;;;1.13;0.50;;;9.70;99.90;;;;;;5055371;28;20029;-62
2023/12/29 05:36:10;;;;;;;0.63;0.50;;;9.70;99.90;;;;;;5056565;28;20021;-62
2023/12/29 05:38:37;;;;;;;0.50;0.43;;;9.60;99.90;;;;;;5056873;28;20198;-62
2023/12/29 05:41:05;;;;;;;1.75;0.50;;;9.50;99.90;;;;;;5056409;28;20039;-62
2023/12/29 05:43:32;;;;;;;3.55;0.40;;;9.40;99.90;;;;;;5055132;28;20021;-63
2023/12/29 05:45:58;;;;;;;1.33;0.63;;;9.30;99.90;;;;;;5056715;28;20461;-62
2023/12/29 05:48:24;;;;;;;0.73;0.60;;;9.10;99.90;;;;;;5056219;28;20538;-62
2023/12/29 05:50:53;;;;;;;2.22;0.65;;;8.80;99.90;;;;;;5056786;28;20057;-62
2023/12/29 05:53:19;;;;;;;1.45;0.77;;;8.70;99.90;;;;;;5054913;28;20397;-62
2023/12/29 05:55:45;;;;;;;0.77;0.70;;;8.40;99.90;;;;;;5055958;28;20116;-62
2023/12/29 05:58:11;;;;;;;1.20;0.80;;;8.00;99.90;;;;;;5055058;28;20483;-62
2023/12/29 06:00:38;;;;;;;3.08;0.85;;;7.70;99.90;;;;;;5056037;28;20029;-62
2023/12/29 06:03:04;;;;;;;0.90;0.60;;;7.40;99.90;;;;;;5054797;28;20094;-62
2023/12/29 06:05:30;;;;;;;2.25;0.80;;;7.20;99.90;;;;;;5056061;28;20461;-62
2023/12/29 06:07:56;;;;;;;2.58;0.80;;;6.90;99.90;;;;;;5053972;28;20033;-63
2023/12/29 06:10:21;;;;;;;1.95;0.73;;;6.60;99.90;;;;;;5054842;28;20024;-62
2023/12/29 06:12:47;;;;;;;1.92;0.73;;;6.40;99.90;;;;;;5055901;28;20029;-62
2023/12/29 06:15:16;;;;;;;0.85;0.60;;;6.20;99.90;;;;;;5055541;28;20482;-62
2023/12/29 06:17:42;;;;;;;2.42;1.08;;;6.10;99.90;;;;;;5054477;28;20028;-62
2023/12/29 06:20:09;;;;;;;2.47;0.82;;;6.00;99.90;;;;;;5055919;28;20041;-62
2023/12/29 06:22:42;;;;;;;3.25;0.98;;;5.80;99.90;;;;;;5055989;28;20028;-62
2023/12/29 06:25:11;;;;;;;1.92;0.85;;;5.70;99.90;;;;;;5054952;28;20025;-62
2023/12/29 06:27:38;;;;;;;6.43;1.15;;;5.60;99.90;;;;;;5055626;28;20112;-62
2023/12/29 06:30:07;;;;;;;3.33;1.40;;;5.40;99.90;;;;;;5055646;28;20036;-62
2023/12/29 06:32:33;;;;;;;3.50;1.30;;;5.20;99.90;;;;;;5055472;28;20029;-62
2023/12/29 06:34:59;;;;;;;2.75;1.17;;;5.20;99.90;;;;;;5055484;28;20025;-62
2023/12/29 06:37:25;;;;;;;4.00;1.10;;;5.10;99.90;;;;;;5055438;28;20029;-62
2023/12/29 06:39:51;;;;;;;2.75;1.45;;;5.00;99.90;;;;;;5055298;28;20530;-62
2023/12/29 06:42:16;;;;;;;1.95;1.02;;;4.90;99.90;;;;;;5055364;28;20060;-62
2023/12/29 06:44:42;;;;;;;3.05;1.63;;;4.80;99.90;;;;;;5054982;28;20028;-62
2023/12/29 06:47:09;;;;;;;2.05;1.15;;;4.70;99.90;;;;;;5055239;28;20036;-62
2023/12/29 06:49:35;;;;;;;2.42;1.75;;;4.60;99.90;;;;;;5055210;28;20029;-62
2023/12/29 06:52:01;;;;;;;3.83;1.65;;;4.60;99.90;;;;;;5054827;28;20128;-62
2023/12/29 06:54:26;;;;;;;4.72;1.98;;;4.60;99.90;;;;;;5054799;28;20481;-62
2023/12/29 06:56:52;;;;;;;5.43;3.13;;;4.50;99.90;;;;;;5053776;28;20025;-62
2023/12/29 06:59:19;;;;;;;4.53;2.55;;;4.50;99.90;;;;;;5054556;28;20021;-62
2023/12/29 07:01:45;;;;;;;3.70;2.15;;;4.50;99.90;;;;;;5055208;28;20081;-62
2023/12/29 07:04:12;;;;;;;8.18;3.05;;;4.40;99.90;;;;;;5053666;28;20102;-63
2023/12/29 07:06:38;;;;;;;5.90;2.28;;;4.40;99.90;;;;;;5055461;28;20029;-62
2023/12/29 07:09:04;;;;;;;4.20;2.30;;;4.30;99.90;;;;;;5055000;28;20032;-62
2023/12/29 07:11:30;;;;;;;6.97;2.70;;;4.30;99.90;;;;;;5054789;28;20029;-62
2023/12/29 07:13:55;;;;;;;4.43;3.28;;;4.30;99.90;;;;;;5054428;28;20487;-62
2023/12/29 07:16:21;;;;;;;7.72;3.47;;;4.30;99.90;;;;;;5054663;28;20043;-62
2023/12/29 07:18:47;;;;;;;8.70;3.75;;;4.30;99.90;;;;;;5054559;28;20475;-62
2023/12/29 07:21:13;;;;;;;5.10;2.78;;;4.30;99.90;;;;;;5054526;28;20037;-62
2023/12/29 07:23:40;;;;;;;6.72;3.60;;;4.40;99.90;;;;;;5054728;28;20116;-62
2023/12/29 07:26:06;;;;;;;7.20;3.25;;;4.40;99.90;;;;;;5054520;28;20029;-62
2023/12/29 07:28:34;;;;;;;6.50;2.95;;;4.40;99.90;;;;;;5053376;28;20028;-62
2023/12/29 07:31:01;;;;;;;6.55;3.17;;;4.40;99.90;;;;;;5054438;28;20028;-62
2023/12/29 07:33:27;;;;;;;5.93;3.35;;;4.40;99.90;;;;;;5052764;28;20111;-62
2023/12/29 07:35:53;;;;;;;8.30;3.90;;;4.40;99.90;;;;;;5054297;28;20033;-62
2023/12/29 07:38:18;;;;;;;8.75;3.33;;;4.40;99.90;;;;;;5054353;28;20119;-62
2023/12/29 07:40:44;;;;;;;11.30;4.70;;;4.40;99.90;;;;;;5052886;28;20040;-62
2023/12/29 07:43:10;;;;;;;11.60;3.97;;;4.40;99.90;;;;;;5052887;28;20031;-62
2023/12/29 07:45:37;;;;;;;10.30;4.97;;;4.60;99.90;;;;;;5054123;28;20029;-62
2023/12/29 07:48:03;;;;;;;8.73;4.30;;;4.80;99.90;;;;;;5054133;28;20021;-62
2023/12/29 07:50:29;;;;;;;13.07;5.50;;;4.90;99.90;;;;;;5054105;28;20028;-59
2023/12/29 07:52:55;;;;;;;11.98;4.60;;;5.10;99.90;;;;;;5054025;28;20049;-59
2023/12/29 07:55:20;;;;;;;11.15;4.97;;;5.30;99.90;;;;;;5054321;28;20413;-62
2023/12/29 07:57:46;;;;;;;10.18;5.25;;;5.50;99.90;;;;;;5054028;28;20025;-62
2023/12/29 08:00:14;;;;;;;11.25;5.72;;;5.70;99.90;;;;;;5053823;28;20029;-62
2023/12/29 08:02:40;;;;;;;12.43;6.22;;;5.80;99.90;;;;;;5054063;28;20044;-62
2023/12/29 08:05:08;;;;;;;11.45;6.40;;;5.90;99.90;;;;;;5054103;28;20021;-62
2023/12/29 08:07:37;;;;;;;11.50;6.82;;;6.00;99.90;;;;;;5054169;28;20505;-62
2023/12/29 08:10:05;;;;;;;15.32;6.63;;;6.10;99.90;;;;;;5053743;28;20032;-62
2023/12/29 08:12:33;;;;;;;14.93;5.50;;;6.20;99.90;;;;;;5052711;28;20495;-62
2023/12/29 08:14:59;;;;;;;13.30;5.72;;;6.20;99.90;;;;;;5052497;28;20461;-62
2023/12/29 08:17:24;;;;;;;13.57;7.00;;;6.20;99.90;;;;;;5053827;28;20040;-62
2023/12/29 08:19:50;;;;;;;11.00;6.47;;;6.20;99.90;;;;;;5054515;28;20029;-67
2023/12/29 08:22:15;;;;;;;10.82;5.70;;;6.20;99.90;;;;;;5054690;28;20478;-62
2023/12/29 08:24:44;;;;;;;12.25;5.15;;;6.20;99.90;;;;;;5054217;28;20074;-62
2023/12/29 08:27:11;;;;;;;11.10;4.03;;;6.40;99.90;;;;;;5054277;28;20021;-67
2023/12/29 08:29:37;;;;;;;9.63;3.90;;;6.50;99.90;;;;;;5054570;28;20384;-62
2023/12/29 08:32:03;;;;;;;7.35;3.97;;;6.70;99.90;;;;;;5057847;28;20108;-62
2023/12/29 08:34:29;;;;;;;7.60;4.07;;;6.90;99.90;;;;;;5057866;28;20476;-62
2023/12/29 08:36:54;;;;;;;16.80;4.45;;;7.00;99.90;;;;;;5057383;28;20087;-62
2023/12/29 08:39:20;;;;;;;14.10;5.10;;;7.10;99.90;;;;;;5057290;28;20029;-62
2023/12/29 08:41:47;;;;;;;7.82;3.97;;;7.20;99.90;;;;;;5057309;28;20396;-62
2023/12/29 08:44:13;;;;;;;9.23;4.70;;;7.40;99.90;;;;;;5057564;28;20029;-62
2023/12/29 08:46:38;;;;;;;11.88;5.20;;;7.40;99.90;;;;;;5057388;28;20031;-62
2023/12/29 08:49:04;;;;;;;12.30;4.32;;;7.50;99.90;;;;;;5057879;28;20025;-62
2023/12/29 08:51:30;;;;;;;10.35;5.28;;;7.60;99.90;;;;;;5057376;28;20037;-62
2023/12/29 08:53:55;;;;;;;8.75;5.28;;;7.60;99.90;;;;;;5057533;28;20041;-62
2023/12/29 08:56:21;;;;;;;13.23;5.60;;;7.70;99.90;;;;;;5056400;28;20029;-62
2023/12/29 08:58:46;;;;;;;10.25;5.47;;;7.80;99.90;;;;;;5057449;28;20449;-62
2023/12/29 09:01:12;;;;;;;9.52;5.20;;;7.90;99.90;;;;;;5055909;28;20071;-62
2023/12/29 09:03:38;;;;;;;12.45;5.10;;;8.00;99.90;;;;;;5057169;28;20502;-63
2023/12/29 09:06:04;;;;;;;10.65;5.40;;;8.10;99.90;;;;;;5057121;28;20021;-62
2023/12/29 09:08:30;;;;;;;10.52;5.00;;;8.20;99.90;;;;;;5056812;28;20090;-62
2023/12/29 09:10:56;;;;;;;9.48;4.38;;;8.30;99.90;;;;;;5055793;28;20387;-62
2023/12/29 09:13:25;;;;;;;7.85;5.03;;;8.50;99.90;;;;;;5055820;28;20484;-62
2023/12/29 09:15:50;;;;;;;6.80;3.50;;;8.80;99.90;;;;;;5057195;28;20024;-62
2023/12/29 09:18:16;;;;;;;4.57;1.85;;;9.40;99.90;;;;;;5056975;28;20040;-62
2023/12/29 09:20:42;;;;;;;2.85;1.00;;;10.20;99.90;;;;;;5056825;28;20029;-62
2023/12/29 09:23:08;;;;;;;1.25;0.68;;;11.80;99.90;;;;;;5056772;28;20029;-62
2023/12/29 09:25:33;;;;;;;2.15;0.70;;;13.10;96.00;;;;;;5055658;28;20075;-62
2023/12/29 09:27:59;;;;;;;0.90;0.50;;;13.40;92.90;;;;;;5056953;28;20032;-62
2023/12/29 09:30:24;;;;;;;0.88;0.88;;;13.50;91.10;;;;;;5055832;28;20396;-62
2023/12/29 09:32:50;;;;;;;0.63;0.60;;;13.50;91.00;;;;;;5056654;28;20036;-62
2023/12/29 09:35:17;;;;;;;3.03;0.60;;;13.60;89.50;;;;;;5056989;28;20029;-62
2023/12/29 09:37:42;;;;;;;1.95;0.40;;;13.70;88.70;;;;;;5056599;28;20032;-63
2023/12/29 09:40:10;;;;;;;1.17;0.50;;;13.70;88.20;;;;;;5055197;28;20400;-62
2023/12/29 09:42:38;;;;;;;0.43;0.30;;;13.70;88.20;;;;;;5055219;28;20108;-62
2023/12/29 09:45:09;;;;;;;0.40;0.40;;;14.50;86.80;;;;;;5056593;28;20376;-62
2023/12/29 09:47:40;;;;;;;1.13;0.60;;;15.80;82.00;;;;;;5055699;28;20033;-63
2023/12/29 09:50:11;;;;;;;0.47;0.47;;;16.60;76.70;;;;;;5055161;28;20480;-63
2023/12/29 09:52:41;;;;;;;1.50;0.82;;;16.30;74.40;;;;;;5055098;28;20045;-63
2023/12/29 09:55:11;;;;;;;1.55;0.77;;;15.80;75.60;;;;;;5054790;28;20027;-62
2023/12/29 09:57:38;;;;;;;2.42;0.93;;;16.20;75.00;;;;;;5056106;28;20159;-63
2023/12/29 10:00:05;;;;;;;2.78;0.82;;;16.90;72.50;;;;;;5056035;28;20077;-62
2023/12/29 10:02:31;;;;;;;2.72;0.60;;;17.40;71.40;;;;;;5056056;28;20075;-63
2023/12/29 10:05:01;;;;;;;0.80;0.80;;;17.80;67.70;;;;;;5055975;28;20025;-63
2023/12/29 10:07:29;;;;;;;0.52;0.50;;;17.60;66.70;;;;;;5056126;28;20215;-63
2023/12/29 10:09:57;;;;;;;2.72;0.60;;;17.40;67.20;;;;;;5055895;28;20056;-63
2023/12/29 10:12:24;;;;;;;1.20;0.70;;;17.40;66.50;;;;;;5055810;28;20025;-63
2023/12/29 10:15:10;;;;;;;1.02;0.70;;;17.30;66.40;;;;;;5054569;28;20385;-63
2023/12/29 10:17:46;;;;;;;1.02;0.50;;;17.40;65.40;;;;;;5055940;28;20017;-63
2023/12/29 10:20:49;;;;;;;0.88;0.57;;;17.30;64.80;;;;;;5055720;28;20036;-63
2023/12/29 10:23:22;;;;;;;0.60;0.60;;;17.00;65.50;;;;;;5055516;28;20052;-62
2023/12/29 10:25:49;;;;;;;1.35;0.63;;;16.90;66.20;;;;;;5055315;28;20090;-62
2023/12/29 10:28:16;;;;;;;4.25;0.73;;;17.10;65.50;;;;;;5055476;28;20465;-62
2023/12/29 10:30:41;;;;;;;1.08;0.68;;;17.40;65.00;;;;;;5055158;28;20067;-63
2023/12/29 10:33:08;;;;;;;2.15;0.52;;;17.30;64.40;;;;;;5055440;28;20060;-63
2023/12/29 10:35:37;;;;;;;1.23;0.50;;;17.30;64.10;;;;;;5054090;28;20028;-63
2023/12/29 10:38:12;;;;;;;;;;;17.10;64.40;;;;;;5055763;28;20021;-60
2023/12/29 10:40:38;;;;;;;0.60;0.45;;;17.20;69.10;;;;;;5055225;28;19920;-60
2023/12/29 10:43:08;;;;;;;0.63;0.63;;;17.20;65.80;;;;;;5054051;28;20025;-60
2023/12/29 10:45:34;;;;;;;0.70;0.60;;;17.10;65.60;;;;;;5055253;28;20033;-60
2023/12/29 10:48:00;;;;;;;2.25;0.50;;;16.80;66.20;;;;;;5055150;28;20031;-60
2023/12/29 10:50:27;;;;;;;1.30;0.70;;;16.80;66.30;;;;;;5053743;28;20032;-60
2023/12/29 10:53:11;;;;;;;1.83;0.63;;;16.70;66.20;;;;;;5052978;28;20076;-60
2023/12/29 10:55:36;;;;;;;1.35;0.63;;;16.90;65.80;;;;;;5054301;28;20380;-60
2023/12/29 10:58:02;;;;;;;1.77;0.40;;;17.00;65.60;;;;;;5054041;28;20025;-60
2023/12/29 11:00:32;;;;;;;1.98;0.52;;;17.20;65.70;;;;;;5053775;28;20043;-60
2023/12/29 11:02:58;;;;;;;0.77;0.50;;;17.40;65.00;;;;;;5054875;28;20032;-60
2023/12/29 11:05:26;;;;;;;2.03;0.35;;;17.60;64.90;;;;;;5053524;28;20075;-61
2023/12/29 11:07:54;;;;;;;1.83;0.68;;;17.80;64.20;;;;;;5054784;28;20112;-60
2023/12/29 11:10:21;;;;;;;1.13;0.60;;;18.00;63.20;;;;;;5054771;28;20035;-60
2023/12/29 11:12:48;;;;;;;2.92;0.40;;;18.00;63.00;;;;;;5053207;28;20029;-61
2023/12/29 11:15:15;;;;;;;1.17;0.35;;;18.20;62.80;;;;;;5054974;28;20021;-60
2023/12/29 11:18:01;;;;;;;2.50;0.70;;;18.50;61.90;;;;;;5053351;28;20036;-61
2023/12/29 11:20:27;;;;;;;1.10;0.50;;;18.80;61.70;;;;;;5053223;28;20039;-60
2023/12/29 11:22:54;;;;;;;1.40;0.35;;;19.00;60.40;;;;;;5054665;28;20023;-60
2023/12/29 11:25:20;;;;;;;0.47;0.47;;;18.90;59.60;;;;;;5053184;28;20384;-61
2023/12/29 11:27:48;;;;;;;1.70;0.60;;;18.80;59.90;;;;;;5053826;28;20029;-61
2023/12/29 11:30:15;;;;;;;0.60;0.57;;;19.20;59.70;;;;;;5054488;28;20132;-61
2023/12/29 11:33:03;;;;;;;2.28;0.50;;;19.30;58.50;;;;;;5053247;28;20033;-61
2023/12/29 11:35:48;;;;;;;0.45;0.45;;;19.50;57.80;;;;;;5054388;28;20465;-61
2023/12/29 11:38:51;;;;;;;2.92;0.95;;;19.50;57.60;;;;;;5052998;28;20124;-61
2023/12/29 11:41:33;;;;;;;0.65;0.50;;;19.00;58.70;;;;;;5054159;28;20040;-61
2023/12/29 11:44:00;;;;;;;1.38;0.55;;;18.40;59.20;;;;;;5053936;28;20025;-61
2023/12/29 11:46:42;;;;;;;1.00;0.43;;;18.40;59.20;;;;;;5054263;28;20033;-63
2023/12/29 11:49:08;;;;;;;0.52;0.45;;;18.10;59.20;;;;;;5054349;28;20024;-62
2023/12/29 11:51:46;;;;;;;1.00;0.50;;;18.00;59.20;;;;;;5053891;28;20029;-63
2023/12/29 11:54:25;;;;;;;1.55;0.43;;;17.80;59.30;;;;;;5054209;28;20024;-65
2023/12/29 11:56:52;;;;;;;1.08;0.40;;;17.70;59.70;;;;;;5053903;28;20025;-62
2023/12/29 11:59:18;;;;;;;1.08;0.98;;;17.70;59.60;;;;;;5053925;28;20029;-63
2023/12/29 12:01:47;;;;;;;3.40;1.60;;;18.00;59.40;;;;;;5052525;28;20124;-63
2023/12/29 12:04:44;;;;;;;1.83;0.68;;;17.90;59.30;;;;;;5052977;28;20397;-63
2023/12/29 12:07:37;;;;;;;1.63;0.70;;;17.70;59.20;;;;;;5052400;28;20033;-63
2023/12/29 12:10:24;;;;;;;1.05;0.60;;;17.90;58.50;;;;;;5053598;28;20078;-63
2023/12/29 12:12:54;;;;;;;0.70;0.70;;;17.40;59.30;;;;;;5052410;28;20028;-63
2023/12/29 12:15:29;;;;;;;1.10;0.60;;;17.20;59.80;;;;;;5052374;28;20473;-63
2023/12/29 12:18:09;;;;;;;1.77;0.60;;;17.20;59.80;;;;;;5053718;28;20032;-63
2023/12/29 12:20:35;;;;;;;1.13;0.43;;;17.20;59.80;;;;;;5053568;28;20091;-63
2023/12/29 12:23:20;;;;;;;0.63;0.40;;;17.30;60.10;;;;;;5051986;28;20115;-63
2023/12/29 12:25:46;;;;;;;2.10;0.52;;;17.40;60.00;;;;;;5053648;28;20071;-63
2023/12/29 12:28:14;;;;;;;1.20;0.70;;;17.20;59.70;;;;;;5052239;28;20029;-63
2023/12/29 12:30:40;;;;;;;2.55;0.77;;;16.80;60.60;;;;;;5053541;28;20392;-63
2023/12/29 12:33:06;;;;;;;1.75;0.50;;;16.50;61.30;;;;;;5053675;28;20118;-63
2023/12/29 12:35:31;;;;;;;2.95;0.50;;;16.20;61.40;;;;;;5052460;28;20032;-63
2023/12/29 12:38:12;;;;;;;0.75;0.60;;;16.10;61.70;;;;;;5053489;28;20480;-63
2023/12/29 12:40:38;;;;;;;1.38;0.70;;;15.80;62.10;;;;;;5053773;28;20532;-63
2023/12/29 12:43:04;;;;;;;1.38;0.55;;;15.70;62.90;;;;;;5053538;28;20048;-63
2023/12/29 12:45:34;;;;;;;0.77;0.57;;;15.50;63.40;;;;;;5052307;28;20025;-63
2023/12/29 12:48:17;;;;;;;1.98;0.60;;;15.40;63.90;;;;;;5053772;28;20364;-63
2023/12/29 12:50:47;;;;;;;0.82;0.65;;;15.30;64.30;;;;;;5053717;28;20070;-63